Krakow, Poland

10:35 AM CET on February 25, 2017 (GMT +0100)
John Paul II International / Krakow-Balice | | Change Station

Elev 778 ft 50.08 °N, 19.80 °E | Updated 5 minutes ago

Light Snow Showers
Light Showers Snow
34 °F
Feels Like 24 °F
N
16
Wind Variable Wind from WSW

Today
High -- | Low -- °F
--% Chance of Precip.
Yesterday
High -- | Low -- °F
Precip. -- in
Pressure 30.12 in
Visibility 6.2 miles
Clouds Scattered Clouds 1700 ft
Mostly Cloudy 2600 ft
Windchill 24 °F
Dew Point 28 °F
Humidity 81%
Rainfall 0.00 in
Snow Depth Not available.
6:32 AM 5:16 PM
Waning Crescent, 2% visible
METAR EPKK 250930Z 25014KT 9999 -SHSN SCT017TCU BKN026 01/M02 Q1020 R25/42//95
Pressure 30.12 in
Visibility 6.2 miles
Clouds Scattered Clouds 1700 ft
Mostly Cloudy 2600 ft
Windchill 24 °F
Dew Point 28 °F
Humidity 81%
Rainfall 0.00 in
Snow Depth Not available.
6:32 AM 5:16 PM
Waning Crescent, 2% visible
METAR EPKK 250930Z 25014KT 9999 -SHSN SCT017TCU BKN026 01/M02 Q1020 R25/42//95

Get Your Daily Forecast Email!

Thanks for signing up!

Be on the lookout for a verification email in your inbox.

You'll start receiving the daily forecast at 8 AM.

×

10-Day Weather Forecast

×

Almanac

Astronomy

Feb. 25, 2017 Rise Set
Actual Time
Civil Twilight
Nautical Twilight
Astronomical Twilight
Moon
Length of Visible Light
Length of Day
Tomorrow will be .
, % of the Moon is Illuminated

Today's Extremes

Country Highs Country Lows

Community

WunderPhotos

Upload Photos

1,962,540 photos uploaded!

WunderBlog® & News

Nearby

Air Quality

  Air Quality AQ Index Pollutant
Not available.

Snow Depth

Station Depth Elevation

Earthquake Activity

City Distance Mag. Time & Date
Minimum magnitude displayed is 2.5.

Coastal Water Temperatures

Place Temperature

Stations

Nearby Weather Stations

Station Location Temp. Windchill Dew Point Humidity Wind Precip. Elev Updated Type